Terminal Aerodrome Forecast
Issued by NWS

Home | Current Version | Previous Version | Text Only | Print | Product List | Glossary On
Versions: 1 2 3 4 5 6 7 8 9 10 11 12 13 14 15 16 17 18 19 20 21 22 23 24 25 26 27 28 29 30 31 32 33 34 35 36 37 38 39 40 41 42 43 44 45 46 47 48 49 50
000
FTUS46 KOTX 212340
TAFMWH
TAF
KMWH 212340Z 2200/2224 00000KT 1SM -RA BR FEW006 BKN040 OVC050
      TEMPO 2200/2202 2SM -FZRAPL BR BKN025
     FM220200 16008KT 2SM RA OVC005
     FM220600 21008KT 1SM BR OVC007
     FM221800 25014KT P6SM BKN250=

USA.gov is the U.S. government's official web portal to all federal, state and local government web resources and services.